Time;durP1;ratioP1;P1;durP2;ratioP2;P2;SDS_P1;SDS_P2;PMS_P1;PMS_P2;Temp;Humidity;BMP_temperature;BMP_pressure;BME280_temperature;BME280_humidity;BME280_pressure;Samples;Min_cycle;Max_cycle;Signal;HPM_P1;HPM_P2
2022/01/17 00:00:58;;;;;;;35.67;22.88;;;;;;;4.71;90.31;99529.09;4074435;29;20223;-85
2022/01/17 00:03:01;;;;;;;38.35;23.23;;;;;;;4.71;90.73;99540.28;4070984;29;20219;-85
2022/01/17 00:05:05;;;;;;;29.75;20.83;;;;;;;4.70;91.04;99540.31;4068529;29;20650;-84
2022/01/17 00:07:08;;;;;;;32.78;22.38;;;;;;;4.70;90.28;99535.13;4071243;28;20207;-85
2022/01/17 00:09:13;;;;;;;34.15;22.75;;;;;;;4.71;90.76;99549.75;4061682;29;20215;-85
2022/01/17 00:11:16;;;;;;;31.77;21.60;;;;;;;4.72;90.23;99547.16;4072519;29;20215;-85
2022/01/17 00:13:25;;;;;;;34.92;22.00;;;;;;;4.73;90.09;99550.56;4094158;29;20202;-85
2022/01/17 00:15:32;;;;;;;32.58;21.55;;;;;;;4.73;91.38;99545.41;4060207;29;20229;-85
2022/01/17 00:17:39;;;;;;;32.78;21.58;;;;;;;4.75;90.97;99554.84;4071015;29;20855;-85
2022/01/17 00:19:46;;;;;;;35.67;23.30;;;;;;;4.76;90.06;99550.50;4060017;29;20220;-85
2022/01/17 00:21:49;;;;;;;36.50;24.05;;;;;;;4.76;89.92;99556.50;4061614;29;20220;-85
2022/01/17 00:23:52;;;;;;;29.42;21.17;;;;;;;4.76;90.11;99555.66;4054489;29;20656;-85
2022/01/17 00:25:56;;;;;;;34.88;21.75;;;;;;;4.76;90.15;99553.09;4076570;29;20224;-85
2022/01/17 00:27:59;;;;;;;33.55;20.80;;;;;;;4.77;89.90;99554.81;4071281;29;20211;-85
2022/01/17 00:30:04;;;;;;;32.15;21.98;;;;;;;4.75;90.90;99554.84;4073748;28;20679;-85
2022/01/17 00:32:08;;;;;;;35.08;22.67;;;;;;;4.76;90.83;99555.66;4074984;29;20290;-85
2022/01/17 00:34:11;;;;;;;31.20;21.10;;;;;;;4.76;90.38;99564.25;4066678;29;20214;-85
2022/01/17 00:36:14;;;;;;;37.95;22.95;;;;;;;4.77;90.44;99565.13;4072423;29;20306;-85
2022/01/17 00:38:17;;;;;;;28.52;19.58;;;;;;;4.80;90.86;99558.16;4077447;29;20207;-85
2022/01/17 00:40:22;;;;;;;28.60;20.23;;;;;;;4.84;90.02;99558.94;4070525;29;20258;-85
2022/01/17 00:42:27;;;;;;;29.55;18.92;;;;;;;4.88;90.87;99556.25;4070485;29;20814;-85
2022/01/17 00:44:30;;;;;;;28.30;19.02;;;;;;;4.93;89.85;99556.13;4085201;29;20218;-85
2022/01/17 00:46:34;;;;;;;28.52;19.58;;;;;;;4.93;90.64;99563.91;4071457;29;20220;-85
2022/01/17 00:48:37;;;;;;;29.35;19.63;;;;;;;4.92;89.19;99557.03;4056694;29;20207;-85
2022/01/17 00:50:41;;;;;;;26.45;17.58;;;;;;;4.83;89.16;99555.50;4072000;29;20617;-84
2022/01/17 00:52:44;;;;;;;24.23;18.50;;;;;;;4.79;89.77;99553.03;4057319;29;20271;-85
2022/01/17 00:54:47;;;;;;;28.70;19.05;;;;;;;4.70;90.10;99560.97;4073855;29;20288;-85
2022/01/17 00:56:50;;;;;;;27.63;18.88;;;;;;;4.71;89.58;99560.09;4070523;29;20211;-85
2022/01/17 00:58:55;;;;;;;28.73;18.70;;;;;;;4.67;89.57;99561.03;4074487;29;20687;-85
2022/01/17 01:00:58;;;;;;;29.13;18.45;;;;;;;4.70;89.84;99574.72;4070941;29;20563;-85
2022/01/17 01:03:01;;;;;;;29.83;19.60;;;;;;;4.76;89.70;99578.94;4073036;29;20234;-85
2022/01/17 01:05:06;;;;;;;25.88;18.55;;;;;;;4.79;90.17;99576.28;4071755;29;20361;-85
2022/01/17 01:07:09;;;;;;;29.83;18.67;;;;;;;4.75;89.44;99574.63;4087612;29;20258;-85
2022/01/17 01:09:12;;;;;;;32.50;19.60;;;;;;;4.83;89.33;99577.91;4059156;29;20207;-85
2022/01/17 01:11:15;;;;;;;31.40;19.70;;;;;;;4.80;88.38;99578.81;4077102;29;20211;-85
2022/01/17 01:13:22;;;;;;;28.10;19.38;;;;;;;4.81;88.26;99574.50;4071048;29;20214;-85
2022/01/17 01:15:45;;;;;;;31.02;18.95;;;;;;;4.78;88.90;99575.44;4056160;29;20197;-85
2022/01/17 01:17:51;;;;;;;30.60;18.60;;;;;;;4.70;88.90;99577.31;4075604;29;20203;-85
2022/01/17 01:20:03;;;;;;;35.05;19.70;;;;;;;4.71;88.48;99585.94;4071655;29;20226;-85
2022/01/17 01:29:22;;;;;;;35.97;21.50;;;;;;;4.61;87.53;99575.81;4049047;29;20211;-85
2022/01/17 01:31:39;;;;;;;33.25;20.55;;;;;;;4.56;87.44;99573.34;4068608;29;21069;-85
2022/01/17 01:33:50;;;;;;;33.50;20.90;;;;;;;4.56;88.84;99581.09;4069379;29;20224;-85
2022/01/17 01:35:59;;;;;;;33.83;20.90;;;;;;;4.54;87.98;99580.28;4074916;29;20601;-85
2022/01/17 01:38:02;;;;;;;33.13;21.05;;;;;;;4.55;87.48;99586.28;4087814;29;20253;-85
2022/01/17 01:40:07;;;;;;;34.88;21.77;;;;;;;4.56;88.63;99590.59;4083772;29;20265;-85
2022/01/17 01:42:14;;;;;;;32.33;21.20;;;;;;;4.58;88.39;99581.91;4073246;29;20216;-85
2022/01/17 01:44:20;;;;;;;35.13;21.60;;;;;;;4.59;87.67;99582.78;4065061;29;20199;-85
2022/01/17 01:46:23;;;;;;;38.38;21.33;;;;;;;4.62;87.38;99582.69;4071666;29;20211;-85
2022/01/17 01:48:30;;;;;;;35.88;22.27;;;;;;;4.64;87.58;99580.94;4072861;29;20229;-85
2022/01/17 01:50:33;;;;;;;37.13;20.80;;;;;;;4.64;87.59;99579.19;4064665;29;20214;-85
2022/01/17 01:52:36;;;;;;;34.78;20.58;;;;;;;4.65;88.50;99573.16;4072308;29;20978;-85
2022/01/17 01:54:39;;;;;;;36.22;21.40;;;;;;;4.67;87.79;99571.38;4071531;29;20215;-85
2022/01/17 01:56:44;;;;;;;34.38;21.90;;;;;;;4.68;88.49;99571.34;4082853;28;20217;-85
2022/01/17 01:58:48;;;;;;;33.20;21.17;;;;;;;4.70;88.20;99571.31;4070283;29;20222;-85
2022/01/17 02:00:51;;;;;;;35.95;21.80;;;;;;;4.69;87.66;99569.59;4067762;29;20210;-85
2022/01/17 02:02:55;;;;;;;35.17;21.42;;;;;;;4.71;86.48;99573.00;4058976;29;20269;-85
2022/01/17 02:04:59;;;;;;;35.85;22.75;;;;;;;4.69;87.29;99564.44;4073173;29;20222;-85
2022/01/17 02:07:03;;;;;;;37.03;23.02;;;;;;;4.69;87.38;99569.59;4059792;29;20218;-85
2022/01/17 02:09:06;;;;;;;37.10;23.00;;;;;;;4.68;87.34;99570.50;4058558;29;20211;-85
2022/01/17 02:11:11;;;;;;;36.33;21.77;;;;;;;4.68;87.12;99573.91;4071277;29;20255;-85
2022/01/17 02:13:14;;;;;;;38.25;22.88;;;;;;;4.68;87.78;99570.50;4069702;29;20273;-85
2022/01/17 02:15:18;;;;;;;37.20;21.75;;;;;;;4.72;87.95;99572.97;4069477;29;20203;-85
2022/01/17 02:17:23;;;;;;;35.17;21.75;;;;;;;4.71;88.22;99579.03;4067757;29;20207;-85
2022/01/17 02:19:28;;;;;;;34.45;23.30;;;;;;;4.69;88.30;99577.34;4066099;28;20211;-85
2022/01/17 02:21:44;;;;;;;36.65;23.15;;;;;;;4.69;87.84;99580.81;4071000;29;20215;-85
2022/01/17 02:23:50;;;;;;;35.95;22.65;;;;;;;4.71;87.49;99570.44;4071336;29;20679;-85
2022/01/17 02:25:55;;;;;;;41.17;22.90;;;;;;;4.73;87.37;99572.09;4075524;29;20277;-85
2022/01/17 02:28:01;;;;;;;37.35;21.77;;;;;;;4.69;88.28;99567.00;4057723;29;20306;-85
2022/01/17 02:30:05;;;;;;;36.10;22.98;;;;;;;4.67;88.01;99576.53;4056520;29;20279;-85
2022/01/17 02:32:09;;;;;;;34.05;21.80;;;;;;;4.64;87.73;99570.59;4068837;29;20282;-85
2022/01/17 02:34:12;;;;;;;38.75;23.25;;;;;;;4.67;87.29;99575.69;4070024;29;20670;-85
2022/01/17 02:36:15;;;;;;;38.25;22.40;;;;;;;4.67;88.14;99576.53;4083356;29;20217;-85
2022/01/17 02:38:20;;;;;;;35.90;21.90;;;;;;;4.63;87.86;99572.34;4066342;29;20222;-85
2022/01/17 02:40:24;;;;;;;35.63;21.50;;;;;;;4.63;88.05;99580.09;4072374;29;20585;-85
2022/01/17 02:42:27;;;;;;;34.60;22.20;;;;;;;4.58;88.12;99581.91;4077815;29;20374;-85
2022/01/17 02:44:30;;;;;;;33.03;21.65;;;;;;;4.60;87.56;99587.91;4067255;29;20218;-85
2022/01/17 02:46:34;;;;;;;36.15;22.83;;;;;;;4.61;88.30;99587.00;4067413;29;20234;-84
2022/01/17 02:48:39;;;;;;;36.13;22.45;;;;;;;4.62;87.62;99583.53;4059364;29;20858;-85
2022/01/17 02:50:42;;;;;;;35.75;21.10;;;;;;;4.64;87.15;99586.09;4065050;29;20275;-84
2022/01/17 02:52:46;;;;;;;32.50;20.55;;;;;;;4.62;87.95;99587.88;4070729;29;20215;-85
2022/01/17 02:54:50;;;;;;;36.53;21.83;;;;;;;4.67;87.22;99589.44;4059185;29;20263;-84
2022/01/17 02:56:53;;;;;;;34.70;21.77;;;;;;;4.66;88.13;99586.91;4070825;29;20641;-84
2022/01/17 02:58:56;;;;;;;33.28;21.77;;;;;;;4.64;87.75;99592.09;4058328;29;20240;-85
2022/01/17 03:01:02;;;;;;;37.65;22.48;;;;;;;4.62;87.38;99588.72;4068385;29;20210;-84
2022/01/17 03:03:08;;;;;;;36.25;22.67;;;;;;;4.66;87.60;99582.59;4075167;29;20233;-85
2022/01/17 03:05:12;;;;;;;30.80;20.88;;;;;;;4.68;87.97;99580.00;4066778;29;20235;-85
2022/01/17 03:07:15;;;;;;;38.83;22.17;;;;;;;4.70;87.66;99581.63;4073123;29;20573;-84
2022/01/17 03:09:19;;;;;;;34.85;21.42;;;;;;;4.74;88.26;99578.13;4074332;29;20214;-85
2022/01/17 03:11:26;;;;;;;34.72;22.77;;;;;;;4.75;88.23;99578.09;4068374;29;20219;-84
2022/01/17 03:13:32;;;;;;;34.67;21.33;;;;;;;4.77;87.96;99572.88;4057471;29;20291;-85
2022/01/17 03:15:35;;;;;;;35.83;21.23;;;;;;;4.77;87.88;99570.31;4056275;29;20219;-85
2022/01/17 03:17:38;;;;;;;37.35;24.45;;;;;;;4.76;86.98;99560.84;4079138;29;20220;-84
2022/01/17 03:19:41;;;;;;;33.67;21.08;;;;;;;4.77;87.85;99568.56;4060316;29;20203;-85
2022/01/17 03:21:44;;;;;;;32.55;21.10;;;;;;;4.80;87.05;99567.66;4054461;29;20256;-84
2022/01/17 03:23:50;;;;;;;38.58;22.30;;;;;;;4.82;87.14;99566.72;4058890;29;20215;-85
2022/01/17 03:25:54;;;;;;;34.78;21.92;;;;;;;4.85;87.90;99561.47;4070047;29;20231;-84
2022/01/17 03:28:00;;;;;;;36.10;21.73;;;;;;;4.86;86.98;99559.75;4071113;29;20215;-85
2022/01/17 03:30:04;;;;;;;33.15;21.73;;;;;;;4.84;87.32;99552.03;4058492;29;20211;-84
2022/01/17 03:32:08;;;;;;;32.67;21.38;;;;;;;4.85;87.08;99558.91;4071057;29;20217;-84
2022/01/17 03:34:11;;;;;;;35.97;22.40;;;;;;;4.86;87.57;99570.09;4072801;29;20231;-85
2022/01/17 03:36:14;;;;;;;37.45;22.92;;;;;;;4.88;87.84;99576.06;4057390;29;20207;-85
2022/01/17 03:38:20;;;;;;;37.03;21.83;;;;;;;4.90;87.71;99572.59;4070892;29;20211;-85
2022/01/17 03:40:23;;;;;;;37.95;21.55;;;;;;;4.93;87.82;99569.06;4070639;29;20257;-84
2022/01/17 03:42:26;;;;;;;33.95;20.90;;;;;;;4.95;86.85;99568.16;4075728;29;20353;-85
2022/01/17 03:44:30;;;;;;;35.67;21.80;;;;;;;4.95;87.25;99572.47;4071975;29;20284;-85
2022/01/17 03:46:33;;;;;;;32.00;21.33;;;;;;;4.95;86.96;99580.25;4068244;29;20646;-85
2022/01/17 03:48:37;;;;;;;33.47;22.05;;;;;;;4.95;87.22;99585.41;4069577;29;20258;-84
2022/01/17 03:50:40;;;;;;;34.58;20.50;;;;;;;4.94;86.40;99586.28;4068108;29;20246;-85
2022/01/17 03:52:43;;;;;;;37.97;22.50;;;;;;;4.94;86.26;99583.69;4066906;29;20199;-84
2022/01/17 03:54:46;;;;;;;36.65;21.30;;;;;;;4.93;86.89;99584.56;4058077;29;20709;-84
2022/01/17 03:56:50;;;;;;;39.13;21.95;;;;;;;4.93;85.96;99584.56;4053749;29;20214;-84
2022/01/17 03:58:53;;;;;;;34.78;21.20;;;;;;;4.93;86.83;99589.72;4071316;29;20222;-85
2022/01/17 04:00:58;;;;;;;35.33;21.95;;;;;;;4.94;86.57;99592.28;4069345;29;20250;-84
2022/01/17 04:03:02;;;;;;;29.38;19.00;;;;;;;4.91;85.81;99592.34;4057460;29;20232;-85
2022/01/17 04:05:06;;;;;;;32.70;20.83;;;;;;;4.90;85.56;99589.81;4073878;29;20352;-84
2022/01/17 04:07:09;;;;;;;32.47;20.27;;;;;;;4.83;86.36;99578.75;4055860;29;20314;-84
2022/01/17 04:09:13;;;;;;;33.47;20.65;;;;;;;4.81;86.00;99570.19;4088057;29;20575;-84
2022/01/17 04:11:16;;;;;;;28.38;18.88;;;;;;;4.84;85.32;99571.84;4069569;29;20223;-84
2022/01/17 04:13:19;;;;;;;34.13;21.55;;;;;;;4.77;85.40;99575.47;4074752;29;20219;-84
2022/01/17 04:15:22;;;;;;;30.55;19.10;;;;;;;4.77;85.88;99578.06;4075425;29;20830;-85
2022/01/17 04:17:29;;;;;;;29.38;18.08;;;;;;;4.76;86.42;99564.25;4071724;29;20207;-85
2022/01/17 04:19:32;;;;;;;28.70;18.38;;;;;;;4.79;86.13;99564.19;4060701;29;20243;-84
2022/01/17 04:21:36;;;;;;;27.95;18.48;;;;;;;4.77;85.33;99567.72;4060697;29;20212;-84
2022/01/17 04:23:39;;;;;;;31.13;18.23;;;;;;;4.79;85.96;99558.19;4060940;29;20213;-85
2022/01/17 04:25:43;;;;;;;30.02;20.02;;;;;;;4.79;85.32;99555.59;4067821;29;20742;-85
2022/01/17 04:27:47;;;;;;;31.38;20.15;;;;;;;4.78;86.36;99559.94;4068094;29;20767;-85
2022/01/17 04:29:50;;;;;;;28.50;17.50;;;;;;;4.77;86.14;99559.97;4074937;29;20199;-84
2022/01/17 04:31:53;;;;;;;26.13;17.25;;;;;;;4.81;85.44;99577.09;4062361;29;20211;-84
2022/01/17 04:33:58;;;;;;;28.13;17.98;;;;;;;4.84;86.58;99579.59;4069354;29;20216;-85
2022/01/17 04:36:06;;;;;;;30.25;17.52;;;;;;;4.85;85.54;99581.31;4072361;29;20266;-85
2022/01/17 04:38:12;;;;;;;29.75;18.60;;;;;;;4.84;85.73;99592.53;4059020;29;20709;-85
2022/01/17 04:40:16;;;;;;;26.73;17.42;;;;;;;4.84;85.87;99592.53;4069583;29;20298;-84
2022/01/17 04:42:26;;;;;;;28.08;18.00;;;;;;;4.84;86.77;99587.34;4071211;29;20221;-84
2022/01/17 04:47:04;;;;;;;28.38;18.05;;;;;;;4.88;85.92;99586.41;4055040;29;20222;-84
2022/01/17 04:49:09;;;;;;;29.85;17.20;;;;;;;4.92;86.11;99590.66;4041359;29;20264;-85
2022/01/17 04:51:12;;;;;;;25.77;17.40;;;;;;;4.94;86.15;99576.78;4057236;29;20247;-85
2022/01/17 04:53:18;;;;;;;30.25;17.40;;;;;;;4.95;85.99;99583.66;4068060;29;20748;-85
2022/01/17 04:55:21;;;;;;;25.73;16.85;;;;;;;4.94;86.14;99589.69;4074311;29;20276;-84
2022/01/17 04:57:24;;;;;;;28.58;17.67;;;;;;;4.94;85.44;99596.63;4071725;29;20211;-84
2022/01/17 04:59:30;;;;;;;30.38;18.10;;;;;;;4.95;86.28;99603.50;4074979;29;20332;-85
2022/01/17 05:01:33;;;;;;;27.48;16.58;;;;;;;4.96;85.29;99602.59;4059852;29;20254;-85
2022/01/17 05:03:37;;;;;;;29.05;19.05;;;;;;;4.94;85.62;99599.19;4070307;29;20671;-85
2022/01/17 05:05:41;;;;;;;32.22;17.58;;;;;;;4.96;86.46;99592.25;4075545;29;20225;-85
2022/01/17 05:07:45;;;;;;;24.38;16.08;;;;;;;4.99;86.25;99599.94;4076620;29;20283;-85
2022/01/17 05:09:48;;;;;;;25.95;16.45;;;;;;;5.01;85.82;99599.03;4070364;29;20211;-85
2022/01/17 05:11:51;;;;;;;28.40;16.02;;;;;;;5.04;86.01;99592.97;4060132;29;20319;-85
2022/01/17 05:13:54;;;;;;;26.10;16.98;;;;;;;5.02;85.55;99581.78;4068274;29;20222;-85
2022/01/17 05:16:05;;;;;;;28.52;17.17;;;;;;;5.04;86.42;99577.44;4069961;29;20303;-85
2022/01/17 05:19:47;;;;;;;27.60;16.98;;;;;;;5.03;86.04;99581.75;4068986;29;20233;-85
2022/01/17 05:20:37;;;;;;;20.02;13.70;;;;;;;5.08;86.09;99589.41;4070886;29;20301;-85
2022/01/17 05:22:42;;;;;;;22.10;14.30;;;;;;;5.08;85.77;99590.22;4068629;29;20211;-84
2022/01/17 05:24:45;;;;;;;24.25;14.73;;;;;;;5.07;85.40;99592.88;4077020;29;20223;-87
2022/01/17 05:26:48;;;;;;;25.50;13.95;;;;;;;5.08;85.98;99589.41;4066050;29;20230;-87
2022/01/17 05:28:51;;;;;;;22.70;14.13;;;;;;;5.09;85.96;99581.59;4071367;29;20325;-87
2022/01/17 05:30:54;;;;;;;22.40;13.70;;;;;;;5.06;85.83;99576.50;4066880;29;20219;-87
2022/01/17 05:32:59;;;;;;;20.45;13.50;;;;;;;5.08;86.53;99579.06;4074950;29;20244;-85
2022/01/17 05:35:02;;;;;;;24.17;14.20;;;;;;;5.01;85.39;99580.09;4056095;29;20228;-85
2022/01/17 05:37:06;;;;;;;21.27;12.82;;;;;;;5.00;85.32;99576.66;4072620;29;20211;-84
2022/01/17 05:39:11;;;;;;;24.52;14.88;;;;;;;4.99;85.64;99580.13;4057002;29;20310;-85
2022/01/17 05:41:14;;;;;;;22.25;13.75;;;;;;;5.03;85.43;99581.75;4069734;29;20216;-85
2022/01/17 05:43:17;;;;;;;23.63;14.23;;;;;;;5.06;86.20;99575.66;4070494;29;20211;-85
2022/01/17 05:45:20;;;;;;;24.67;14.65;;;;;;;5.07;86.48;99582.53;4073505;29;20215;-85
2022/01/17 05:47:24;;;;;;;18.85;12.90;;;;;;;5.10;85.86;99585.91;4068849;29;20234;-85
2022/01/17 05:49:27;;;;;;;22.13;13.63;;;;;;;5.10;86.33;99595.38;4073866;29;20341;-84
2022/01/17 05:51:33;;;;;;;20.95;13.20;;;;;;;5.04;86.21;99595.53;4071379;29;20207;-84
2022/01/17 05:53:36;;;;;;;21.42;13.00;;;;;;;5.04;85.84;99593.78;4058677;29;20203;-85
2022/01/17 05:55:41;;;;;;;20.42;14.15;;;;;;;5.05;85.60;99600.69;4078142;29;20215;-85
2022/01/17 05:57:44;;;;;;;23.05;14.50;;;;;;;5.04;86.26;99603.28;4073170;29;20206;-84
2022/01/17 05:59:47;;;;;;;20.80;13.30;;;;;;;5.04;86.22;99606.72;4068479;29;20278;-85
2022/01/17 06:01:51;;;;;;;22.55;14.48;;;;;;;5.05;86.61;99604.97;4057391;29;20632;-84
2022/01/17 06:03:54;;;;;;;19.42;12.88;;;;;;;5.07;86.44;99613.56;4071711;29;20489;-84
2022/01/17 06:06:03;;;;;;;20.92;12.88;;;;;;;5.07;86.61;99598.06;4059956;29;21572;-85
2022/01/17 06:08:06;;;;;;;22.45;13.93;;;;;;;5.07;86.03;99608.41;4055593;29;20848;-85
2022/01/17 06:10:09;;;;;;;20.33;13.80;;;;;;;5.07;85.79;99603.22;4071217;29;20216;-85
2022/01/17 06:12:14;;;;;;;21.02;13.02;;;;;;;5.08;86.62;99604.91;4070293;29;20337;-84
2022/01/17 06:14:18;;;;;;;21.27;13.57;;;;;;;5.11;85.56;99620.34;4069976;29;20688;-85
2022/01/17 06:16:21;;;;;;;19.80;13.48;;;;;;;5.11;85.62;99616.03;4072172;29;20215;-85
2022/01/17 06:18:25;;;;;;;21.85;13.77;;;;;;;5.09;86.17;99612.63;4056454;29;20289;-85
2022/01/17 06:20:28;;;;;;;21.05;14.27;;;;;;;5.08;85.76;99610.91;4073394;29;20211;-85
2022/01/17 06:22:31;;;;;;;20.00;13.43;;;;;;;5.08;85.57;99625.59;4062137;29;20204;-85
2022/01/17 06:24:34;;;;;;;22.88;14.10;;;;;;;5.06;86.45;99624.78;4059422;29;20315;-85
2022/01/17 06:26:39;;;;;;;22.02;13.88;;;;;;;5.06;85.86;99622.19;4071375;29;20306;-85
2022/01/17 06:28:43;;;;;;;23.38;14.45;;;;;;;5.08;86.41;99620.41;4074661;29;20278;-84
2022/01/17 06:30:46;;;;;;;19.02;12.55;;;;;;;5.07;86.19;99621.31;4068800;29;20219;-85
2022/01/17 06:32:50;;;;;;;23.05;14.38;;;;;;;5.10;86.30;99624.69;4058589;29;20219;-85
2022/01/17 06:34:53;;;;;;;20.95;13.60;;;;;;;5.14;86.02;99634.03;4067641;29;20583;-85
2022/01/17 06:36:56;;;;;;;20.10;14.45;;;;;;;5.17;86.32;99624.50;4070027;29;20646;-85
2022/01/17 06:39:00;;;;;;;23.05;14.13;;;;;;;5.20;85.36;99632.19;4073645;29;20205;-85
2022/01/17 06:41:04;;;;;;;22.10;14.32;;;;;;;5.20;86.28;99636.50;4075249;29;20271;-84
2022/01/17 06:43:08;;;;;;;23.40;14.63;;;;;;;5.20;85.72;99642.53;4072272;29;20207;-84
2022/01/17 06:45:15;;;;;;;23.02;14.05;;;;;;;5.22;85.74;99651.09;4072951;29;20623;-84
2022/01/17 06:47:19;;;;;;;20.58;14.25;;;;;;;5.22;85.18;99651.09;4068930;29;20215;-84
2022/01/17 06:49:22;;;;;;;20.25;13.52;;;;;;;5.24;86.17;99649.31;4066119;29;20281;-84
2022/01/17 06:51:25;;;;;;;23.90;14.68;;;;;;;5.27;86.04;99649.25;4075254;29;20207;-84
2022/01/17 06:53:29;;;;;;;21.20;13.13;;;;;;;5.29;86.20;99650.09;4072093;29;20646;-84
2022/01/17 06:55:33;;;;;;;21.85;14.80;;;;;;;5.29;85.43;99665.59;4072346;29;20246;-84
2022/01/17 06:57:36;;;;;;;23.38;14.60;;;;;;;5.30;86.24;99659.53;4060056;29;21012;-84
2022/01/17 06:59:39;;;;;;;20.58;13.85;;;;;;;5.33;85.41;99656.88;4084528;29;20313;-84
2022/01/17 07:01:44;;;;;;;20.98;13.95;;;;;;;5.36;85.35;99654.22;4091009;29;20206;-84
2022/01/17 07:03:47;;;;;;;22.33;14.57;;;;;;;5.38;85.83;99649.88;4069259;28;20230;-83
2022/01/17 07:05:51;;;;;;;19.25;13.75;;;;;;;5.36;85.69;99653.38;4067818;29;20210;-82
2022/01/17 07:07:54;;;;;;;24.80;16.02;;;;;;;5.36;86.06;99635.28;4068985;29;20218;-82
2022/01/17 07:09:58;;;;;;;20.83;13.80;;;;;;;5.36;85.91;99628.34;4068206;29;20605;-85
2022/01/17 07:12:01;;;;;;;21.15;13.90;;;;;;;5.36;85.46;99622.34;4073589;29;20282;-84
2022/01/17 07:14:04;;;;;;;23.60;14.65;;;;;;;5.36;85.05;99633.53;4076163;29;20615;-84
2022/01/17 07:16:07;;;;;;;19.98;14.20;;;;;;;5.29;85.47;99631.13;4067484;29;20209;-86
2022/01/17 07:18:13;;;;;;;22.55;14.27;;;;;;;5.24;84.40;99648.47;4057765;29;20207;-84
2022/01/17 07:20:22;;;;;;;22.60;13.70;;;;;;;5.26;84.95;99665.69;4072135;29;20207;-85
2022/01/17 07:22:25;;;;;;;20.05;13.82;;;;;;;5.31;86.05;99679.34;4074842;29;20231;-86
2022/01/17 07:24:28;;;;;;;22.42;13.85;;;;;;;5.31;85.24;99697.44;4060696;29;20706;-86
2022/01/17 07:26:32;;;;;;;22.65;13.90;;;;;;;5.31;85.97;99712.97;4075950;29;20207;-85
2022/01/17 07:28:35;;;;;;;19.90;13.70;;;;;;;5.34;85.78;99719.81;4068886;29;20902;-85
2022/01/17 07:30:39;;;;;;;24.23;14.82;;;;;;;5.35;85.42;99719.78;4086035;29;20210;-85
2022/01/17 07:32:42;;;;;;;23.30;13.65;;;;;;;5.41;85.63;99719.66;4070577;29;20219;-85
2022/01/17 07:34:46;;;;;;;21.77;12.88;;;;;;;5.36;85.69;99705.94;4076790;29;20206;-85
2022/01/17 07:36:50;;;;;;;21.70;13.38;;;;;;;5.35;85.72;99696.50;4067291;29;20801;-87
2022/01/17 07:38:53;;;;;;;19.23;13.18;;;;;;;5.34;85.59;99693.97;4071019;29;20207;-86
2022/01/17 07:40:56;;;;;;;20.23;13.23;;;;;;;5.36;85.89;99692.19;4073769;29;20212;-86
2022/01/17 07:42:59;;;;;;;18.88;13.52;;;;;;;5.36;85.41;99689.59;4075524;29;20217;-86
2022/01/17 07:45:09;;;;;;;22.48;15.23;;;;;;;5.39;85.64;99694.69;4081048;29;20659;-85
2022/01/17 07:47:17;;;;;;;22.77;15.00;;;;;;;5.38;85.20;99698.16;4079847;29;20207;-85
2022/01/17 07:49:21;;;;;;;21.20;14.13;;;;;;;5.40;84.81;99701.59;4080724;29;20230;-86
2022/01/17 07:51:27;;;;;;;22.88;14.55;;;;;;;5.40;85.08;99707.59;4075575;29;20206;-85
2022/01/17 07:53:30;;;;;;;22.00;14.88;;;;;;;5.39;84.97;99699.88;4075333;29;20625;-85
2022/01/17 07:55:36;;;;;;;20.73;14.48;;;;;;;5.39;84.57;99703.28;4077471;29;20211;-86
2022/01/17 07:57:41;;;;;;;21.13;13.98;;;;;;;5.39;85.33;99702.47;4076459;29;20674;-86
2022/01/17 07:59:44;;;;;;;22.15;14.32;;;;;;;5.39;84.68;99694.69;4075896;29;20208;-84
2022/01/17 08:01:47;;;;;;;21.95;14.55;;;;;;;5.38;85.17;99698.16;4069077;29;20314;-84
2022/01/17 08:03:50;;;;;;;23.13;14.05;;;;;;;5.39;84.88;99689.53;4070146;29;20219;-84
2022/01/17 08:05:54;;;;;;;22.30;14.57;;;;;;;5.39;85.25;99685.19;4068300;29;20223;-84
2022/01/17 08:07:58;;;;;;;21.65;14.55;;;;;;;5.42;84.78;99682.53;4059142;29;20320;-85
2022/01/17 08:10:01;;;;;;;21.42;14.15;;;;;;;5.42;84.93;99692.03;4059306;29;20664;-85
2022/01/17 08:12:08;;;;;;;21.85;14.48;;;;;;;5.44;85.46;99703.19;4073353;29;20239;-85
2022/01/17 08:14:11;;;;;;;23.45;14.02;;;;;;;5.45;85.43;99698.00;4063038;29;20290;-85
2022/01/17 08:16:15;;;;;;;19.02;13.20;;;;;;;5.47;85.37;99697.97;4073860;29;20214;-84
2022/01/17 08:18:18;;;;;;;20.60;12.93;;;;;;;5.46;84.95;99696.25;4075462;29;20235;-85
2022/01/17 08:20:22;;;;;;;25.17;15.10;;;;;;;5.48;85.11;99704.84;4079363;29;20231;-85
2022/01/17 08:22:25;;;;;;;18.92;12.73;;;;;;;5.48;84.64;99710.84;4073034;29;20214;-85
2022/01/17 08:24:29;;;;;;;24.75;14.45;;;;;;;5.48;85.04;99710.84;4079251;29;20223;-85
2022/01/17 08:26:32;;;;;;;21.25;13.07;;;;;;;5.45;85.08;99717.84;4067727;29;20214;-85
2022/01/17 08:28:35;;;;;;;23.05;14.50;;;;;;;5.40;84.70;99717.94;4064890;29;20210;-85
2022/01/17 08:30:39;;;;;;;22.23;13.50;;;;;;;5.40;84.89;99723.13;4075552;29;20607;-83
2022/01/17 08:33:02;;;;;;;23.65;15.18;;;;;;;5.39;85.23;99716.22;4075660;29;20242;-83
2022/01/17 08:35:06;;;;;;;20.85;14.48;;;;;;;5.41;85.52;99719.66;4074986;29;20219;-83
2022/01/17 08:37:09;;;;;;;19.73;14.05;;;;;;;5.42;85.27;99718.75;4074849;29;20216;-83
2022/01/17 08:39:13;;;;;;;20.73;13.80;;;;;;;5.43;85.27;99711.88;4066922;29;20214;-83
2022/01/17 08:41:19;;;;;;;20.20;13.88;;;;;;;5.47;85.65;99719.50;4073023;29;20218;-83
2022/01/17 08:43:22;;;;;;;22.05;13.77;;;;;;;5.46;84.93;99722.09;4071303;29;20667;-83
2022/01/17 08:45:26;;;;;;;23.42;14.25;;;;;;;5.43;85.51;99707.53;4058498;29;20218;-83
2022/01/17 08:47:49;;;;;;;22.73;13.90;;;;;;;5.45;85.31;99702.31;4069260;29;20214;-83
2022/01/17 08:49:52;;;;;;;21.15;13.75;;;;;;;5.47;85.19;99705.72;4067533;29;20230;-83
2022/01/17 08:51:56;;;;;;;19.65;14.00;;;;;;;5.48;86.01;99705.69;4075665;29;20215;-83
2022/01/17 08:53:59;;;;;;;19.75;13.30;;;;;;;5.50;85.90;99703.06;4067444;29;20315;-83
2022/01/17 08:56:03;;;;;;;21.33;13.98;;;;;;;5.50;85.72;99693.56;4067257;29;20220;-83
2022/01/17 08:58:08;;;;;;;20.75;13.73;;;;;;;5.54;85.82;99712.47;4076104;29;20710;-83
2022/01/17 09:00:14;;;;;;;21.50;14.27;;;;;;;5.54;86.04;99713.31;4072214;29;20204;-83
2022/01/17 09:02:17;;;;;;;22.17;14.27;;;;;;;5.59;86.15;99708.88;4074854;29;20230;-83
2022/01/17 09:04:21;;;;;;;24.10;14.05;;;;;;;5.67;85.48;99717.34;4072652;29;20211;-83
2022/01/17 09:06:24;;;;;;;21.50;13.82;;;;;;;5.71;85.39;99718.94;4058381;29;20212;-83
2022/01/17 09:08:27;;;;;;;23.33;14.20;;;;;;;5.73;85.28;99718.03;4068998;29;20224;-83
2022/01/17 09:10:31;;;;;;;22.60;14.38;;;;;;;5.74;84.83;99719.78;4066634;29;20227;-83
2022/01/17 09:12:34;;;;;;;18.90;13.00;;;;;;;5.79;84.76;99725.69;4069468;29;20687;-83
2022/01/17 09:14:39;;;;;;;19.23;13.07;;;;;;;5.79;85.25;99732.59;4074620;29;20235;-84
2022/01/17 09:16:42;;;;;;;19.17;13.32;;;;;;;5.79;85.26;99725.69;4068030;29;20589;-83
2022/01/17 09:18:46;;;;;;;21.85;13.50;;;;;;;5.75;84.95;99726.63;4074289;29;20207;-83
2022/01/17 09:20:49;;;;;;;20.75;12.68;;;;;;;5.72;85.05;99731.84;4066655;29;20239;-83
2022/01/17 09:22:52;;;;;;;20.83;13.82;;;;;;;5.74;85.57;99726.66;4072005;29;20223;-83
2022/01/17 09:24:56;;;;;;;20.98;12.90;;;;;;;5.75;85.07;99721.47;4068965;29;20565;-83
2022/01/17 09:26:59;;;;;;;18.52;13.40;;;;;;;5.80;85.37;99718.75;4067510;29;20302;-83
2022/01/17 09:29:03;;;;;;;22.40;13.82;;;;;;;5.80;84.93;99726.53;4073192;29;20223;-83
2022/01/17 09:31:07;;;;;;;18.20;13.20;;;;;;;5.82;84.91;99737.72;4074773;29;20219;-83
2022/01/17 09:33:11;;;;;;;17.95;12.75;;;;;;;5.84;85.20;99754.06;4075436;29;20215;-83
2022/01/17 09:35:14;;;;;;;20.17;13.05;;;;;;;5.84;85.27;99757.47;4077044;29;20217;-84
2022/01/17 09:37:17;;;;;;;18.90;12.00;;;;;;;5.90;85.05;99764.25;4075258;29;20723;-84
2022/01/17 09:39:20;;;;;;;17.83;12.25;;;;;;;5.84;84.97;99773.00;4069224;29;20207;-83
2022/01/17 09:41:24;;;;;;;16.98;12.40;;;;;;;5.83;85.01;99767.88;4072350;29;20210;-83
2022/01/17 09:43:27;;;;;;;18.63;12.82;;;;;;;5.84;85.17;99780.78;4071662;29;20263;-83
2022/01/17 09:45:31;;;;;;;20.10;13.13;;;;;;;5.84;85.05;99787.69;4072588;29;21048;-83
2022/01/17 09:47:37;;;;;;;18.35;12.57;;;;;;;5.89;85.46;99780.66;4070916;29;20215;-83